Malvern, Iowa
Current Conditions -  °F | °C
As of 7:35 PM on Thursday 27 Nov 2014 (Local Time) from KRDK Reporting Station
Overcast Overcast  
Wind Chill: 15°   Ceiling: 12000
Heat Index: 23°   Visibility: 10mi
Dew Point: 14°   Wind: 7mph
Humidity: 68%   Direction: 140°SE
Pressure: 30.31"   Gusts: NA
Location:  41°N, 95.59°W
Report Text: KRDK 280135Z AUTO 14006KT 10SM OVC120 M05/M10 A3031 RMK AO2
Loading
Personal Weather Stations






























Interactive Weather Map New forecast layout! Learn more

10-Day Weather Forecast

Advertisements
Track Severe Weather on mobile